createdAt,value
2017-07-26T00:01:02.146Z,3.57
2017-07-26T00:03:30.283Z,3.13
2017-07-26T00:05:59.210Z,3.27
2017-07-26T00:08:27.329Z,4.03
2017-07-26T00:10:56.270Z,2.47
2017-07-26T00:13:24.399Z,2.90
2017-07-26T00:15:52.532Z,2.80
2017-07-26T00:18:20.685Z,2.73
2017-07-26T00:20:48.819Z,2.00
2017-07-26T00:23:17.753Z,2.13
2017-07-26T00:25:45.878Z,3.00
2017-07-26T00:28:14.764Z,3.13
2017-07-26T00:30:43.680Z,1.93
2017-07-26T00:33:11.800Z,4.43
2017-07-26T00:35:40.094Z,2.37
2017-07-26T00:38:09.002Z,2.03
2017-07-26T00:40:37.126Z,3.30
2017-07-26T00:43:05.280Z,3.10
2017-07-26T00:45:33.414Z,3.23
2017-07-26T00:48:01.616Z,2.70
2017-07-26T00:50:29.734Z,2.17
2017-07-26T00:52:58.630Z,2.50
2017-07-26T00:55:27.553Z,3.50
2017-07-26T00:57:55.695Z,3.23
2017-07-26T01:00:23.971Z,2.83
2017-07-26T01:02:52.860Z,1.93
2017-07-26T01:05:21.759Z,2.20
2017-07-26T01:07:49.917Z,2.63
2017-07-26T01:10:18.805Z,2.67
2017-07-26T01:12:47.762Z,2.50
2017-07-26T01:15:15.890Z,2.37
2017-07-26T01:17:44.011Z,2.63
2017-07-26T01:20:12.179Z,2.90
2017-07-26T01:22:40.300Z,2.80
2017-07-26T01:25:08.465Z,2.53
2017-07-26T01:27:36.580Z,2.27
2017-07-26T01:30:04.706Z,2.13
2017-07-26T01:32:32.857Z,2.60
2017-07-26T01:35:01.744Z,2.47
2017-07-26T01:37:30.669Z,3.57
2017-07-26T01:39:58.806Z,1.93
2017-07-26T01:42:27.911Z,4.13
2017-07-26T01:44:56.793Z,2.27
2017-07-26T01:47:25.685Z,4.33
2017-07-26T01:49:54.602Z,2.43
2017-07-26T01:52:22.722Z,2.53
2017-07-26T01:54:51.219Z,2.07
2017-07-26T01:57:19.342Z,2.20
2017-07-26T01:59:47.483Z,2.43
2017-07-26T02:02:15.641Z,5.67
2017-07-26T02:04:43.770Z,1.90
2017-07-26T02:07:11.927Z,2.87
2017-07-26T02:09:40.059Z,2.20
2017-07-26T02:12:08.217Z,2.10
2017-07-26T02:14:37.114Z,2.03
2017-07-26T02:17:06.058Z,1.80
2017-07-26T02:19:34.184Z,2.40
2017-07-26T02:22:03.078Z,1.67
2017-07-26T02:24:31.241Z,3.33
2017-07-26T02:27:00.129Z,1.47
2017-07-26T02:29:28.294Z,1.93
2017-07-26T02:31:57.202Z,1.90
2017-07-26T02:34:25.334Z,2.87
2017-07-26T02:36:53.484Z,1.70
2017-07-26T02:39:21.619Z,4.30
2017-07-26T02:41:49.790Z,3.93
2017-07-26T02:44:17.918Z,2.60
2017-07-26T02:46:46.207Z,1.57
2017-07-26T02:49:14.330Z,2.40
2017-07-26T02:51:42.449Z,2.40
2017-07-26T02:54:11.441Z,1.70
2017-07-26T02:56:40.330Z,2.20
2017-07-26T02:59:09.279Z,2.07
2017-07-26T03:01:37.411Z,1.77
2017-07-26T03:04:05.544Z,1.63
2017-07-26T03:06:33.706Z,1.23
2017-07-26T03:09:01.847Z,1.20
2017-07-26T03:11:30.005Z,1.93
2017-07-26T03:13:58.142Z,2.13
2017-07-26T03:16:26.514Z,2.27
2017-07-26T03:18:54.636Z,3.23
2017-07-26T03:21:22.770Z,2.07
2017-07-26T03:23:50.952Z,6.97
2017-07-26T03:26:19.841Z,2.00
2017-07-26T03:28:49.030Z,1.80
2017-07-26T03:31:17.939Z,2.40
2017-07-26T03:33:46.053Z,1.50
2017-07-26T03:36:14.201Z,2.10
2017-07-26T03:38:42.325Z,1.63
2017-07-26T03:41:11.255Z,2.43
2017-07-26T03:43:39.379Z,1.83
2017-07-26T03:46:07.770Z,2.20
2017-07-26T03:48:35.905Z,2.00
2017-07-26T03:51:04.046Z,1.70
2017-07-26T03:53:32.223Z,4.17
2017-07-26T03:56:00.346Z,2.50
2017-07-26T03:58:28.510Z,2.13
2017-07-26T04:00:56.640Z,2.53
2017-07-26T04:03:24.786Z,1.87
2017-07-26T04:05:52.958Z,8.03
2017-07-26T04:08:21.075Z,2.67
2017-07-26T04:10:49.253Z,2.30
2017-07-26T04:13:17.438Z,1.80
2017-07-26T04:15:45.553Z,1.73
2017-07-26T04:18:13.714Z,2.23
2017-07-26T04:20:41.853Z,1.90
2017-07-26T04:23:10.019Z,2.20
2017-07-26T04:25:38.140Z,2.53
2017-07-26T04:28:06.323Z,1.80
2017-07-26T04:30:34.446Z,1.83
2017-07-26T04:33:02.582Z,3.33
2017-07-26T04:35:30.759Z,2.20
2017-07-26T04:37:58.873Z,1.67
2017-07-26T04:40:27.810Z,2.03
2017-07-26T04:42:55.937Z,2.10
2017-07-26T04:45:24.096Z,2.60
2017-07-26T04:47:52.226Z,1.70
2017-07-26T04:50:20.345Z,2.07
2017-07-26T04:52:48.496Z,1.83
2017-07-26T04:55:16.616Z,1.80
2017-07-26T04:57:44.857Z,1.80
2017-07-26T05:00:13.757Z,1.67
2017-07-26T05:02:42.690Z,1.63
2017-07-26T05:05:10.821Z,1.87
2017-07-26T05:07:38.949Z,3.70
2017-07-26T05:10:07.107Z,1.90
2017-07-26T05:12:35.238Z,2.53
2017-07-26T05:15:03.396Z,1.90
2017-07-26T05:17:32.280Z,2.50
2017-07-26T05:20:01.207Z,2.80
2017-07-26T05:22:29.338Z,2.27
2017-07-26T05:24:58.416Z,1.93
2017-07-26T05:27:26.547Z,1.90
2017-07-26T05:29:54.692Z,1.60
2017-07-26T05:32:22.842Z,3.70
2017-07-26T05:34:50.957Z,2.10
2017-07-26T05:37:19.131Z,1.63
2017-07-26T05:39:47.330Z,1.60
2017-07-26T05:42:15.506Z,2.83
2017-07-26T05:44:43.634Z,1.90
2017-07-26T05:47:11.778Z,2.23
2017-07-26T05:49:39.944Z,1.90
2017-07-26T05:52:08.066Z,1.40
2017-07-26T05:54:36.232Z,1.90
2017-07-26T05:57:04.348Z,1.30
2017-07-26T05:59:32.498Z,1.60
2017-07-26T06:02:00.619Z,1.30
2017-07-26T06:04:28.826Z,1.80
2017-07-26T06:06:56.943Z,2.00
2017-07-26T06:09:25.997Z,2.23
2017-07-26T06:11:54.152Z,1.93
2017-07-26T06:14:22.282Z,2.27
2017-07-26T06:16:51.200Z,1.40
2017-07-26T06:19:19.340Z,2.20
2017-07-26T06:21:47.493Z,1.57
2017-07-26T06:24:15.617Z,1.70
2017-07-26T06:26:43.962Z,1.30
2017-07-26T06:29:12.859Z,1.50
2017-07-26T06:31:40.993Z,1.73
2017-07-26T06:34:09.152Z,2.30
2017-07-26T06:36:37.282Z,1.13
2017-07-26T06:39:05.447Z,1.20
2017-07-26T06:41:34.337Z,3.43
2017-07-26T06:44:03.261Z,1.70
2017-07-26T06:46:31.399Z,1.70
2017-07-26T06:49:00.404Z,2.57
2017-07-26T06:51:28.568Z,1.57
2017-07-26T06:53:56.687Z,2.70
2017-07-26T06:56:24.837Z,1.23
2017-07-26T06:58:52.975Z,1.97
2017-07-26T07:01:21.143Z,1.80
2017-07-26T07:03:50.041Z,2.03
2017-07-26T07:06:18.398Z,1.20
2017-07-26T07:08:47.284Z,1.60
2017-07-26T07:11:16.182Z,2.00
2017-07-26T07:13:44.346Z,1.77
2017-07-26T07:16:13.229Z,1.57
2017-07-26T07:18:41.402Z,2.70
2017-07-26T07:21:09.542Z,3.57
2017-07-26T07:23:37.707Z,2.53
2017-07-26T07:26:05.911Z,2.20
2017-07-26T07:28:34.099Z,1.93
2017-07-26T07:31:02.234Z,2.23
2017-07-26T07:33:30.350Z,2.33
2017-07-26T07:35:59.280Z,2.43
2017-07-26T07:38:27.404Z,3.33
2017-07-26T07:40:56.334Z,2.80
2017-07-26T07:43:24.472Z,3.63
2017-07-26T07:45:53.357Z,2.50
2017-07-26T07:48:22.286Z,2.70
2017-07-26T07:50:50.411Z,7.00
2017-07-26T07:53:19.343Z,3.53
2017-07-26T07:55:47.479Z,4.47
2017-07-26T07:58:16.416Z,3.40
2017-07-26T08:00:44.557Z,5.60
2017-07-26T08:03:12.730Z,5.13
2017-07-26T08:05:40.856Z,6.13
2017-07-26T08:08:08.989Z,5.33
2017-07-26T08:10:37.148Z,4.17
2017-07-26T08:13:05.286Z,4.20
2017-07-26T08:15:33.441Z,5.20
2017-07-26T08:18:01.574Z,5.63
2017-07-26T08:20:29.746Z,5.77
2017-07-26T08:22:57.885Z,12.70
2017-07-26T08:25:26.009Z,5.27
2017-07-26T08:27:54.179Z,5.10
2017-07-26T08:30:22.319Z,5.63
2017-07-26T08:32:50.512Z,5.80
2017-07-26T08:35:18.629Z,6.70
2017-07-26T08:37:46.938Z,4.77
2017-07-26T08:40:15.075Z,6.40
2017-07-26T08:42:43.968Z,5.40
2017-07-26T08:45:12.894Z,5.40
2017-07-26T08:47:41.031Z,3.87
2017-07-26T08:50:10.113Z,4.77
2017-07-26T08:52:38.245Z,5.43
2017-07-26T08:55:06.382Z,6.27
2017-07-26T08:57:34.547Z,5.13
2017-07-26T09:00:03.442Z,4.00
2017-07-26T09:02:31.605Z,5.50
2017-07-26T09:05:00.494Z,4.87
2017-07-26T09:07:29.419Z,4.87
2017-07-26T09:09:57.542Z,4.77
2017-07-26T09:12:25.719Z,5.47
2017-07-26T09:14:54.635Z,5.07
2017-07-26T09:17:22.803Z,5.30
2017-07-26T09:19:50.925Z,4.50
2017-07-26T09:22:19.058Z,4.00
2017-07-26T09:24:47.801Z,6.27
2017-07-26T09:27:15.917Z,6.00
2017-07-26T09:29:44.074Z,4.80
2017-07-26T09:32:12.216Z,4.17
2017-07-26T09:34:41.117Z,4.97
2017-07-26T09:37:10.046Z,5.30
2017-07-26T09:39:38.172Z,3.80
2017-07-26T09:42:07.100Z,5.00
2017-07-26T09:44:35.235Z,3.40
2017-07-26T09:47:04.137Z,3.80
2017-07-26T09:49:32.316Z,6.50
2017-07-26T09:52:00.454Z,4.13
2017-07-26T09:54:28.622Z,5.30
2017-07-26T09:56:56.749Z,4.60
2017-07-26T09:59:24.909Z,5.10
2017-07-26T10:01:53.045Z,4.07
2017-07-26T10:04:21.172Z,3.80
2017-07-26T10:06:49.342Z,4.73
2017-07-26T10:09:17.477Z,3.53
2017-07-26T10:11:45.658Z,3.23
2017-07-26T10:14:13.802Z,2.93
2017-07-26T10:16:41.921Z,3.23
2017-07-26T10:19:10.089Z,2.83
2017-07-26T10:21:38.230Z,2.90
2017-07-26T10:24:07.144Z,3.00
2017-07-26T10:26:35.307Z,2.60
2017-07-26T10:29:03.468Z,2.93
2017-07-26T10:31:32.378Z,2.40
2017-07-26T10:34:00.526Z,2.00
2017-07-26T10:36:29.450Z,2.00
2017-07-26T10:38:57.565Z,2.40
2017-07-26T10:41:25.721Z,1.33
2017-07-26T10:43:53.843Z,1.93
2017-07-26T10:46:21.996Z,1.80
2017-07-26T10:48:50.899Z,1.77
2017-07-26T10:51:19.074Z,2.10
2017-07-26T10:53:47.213Z,2.40
2017-07-26T10:56:16.132Z,4.83
2017-07-26T10:58:44.295Z,2.20
2017-07-26T11:01:12.436Z,1.37
2017-07-26T11:03:40.607Z,1.40
2017-07-26T11:06:08.744Z,2.43
2017-07-26T11:08:36.870Z,1.70
2017-07-26T11:11:05.793Z,1.10
2017-07-26T11:13:33.944Z,1.93
2017-07-26T11:16:02.879Z,0.97
2017-07-26T11:18:31.010Z,1.33
2017-07-26T11:20:59.185Z,2.80
2017-07-26T11:23:28.349Z,1.43
2017-07-26T11:25:56.474Z,4.17
2017-07-26T11:28:24.644Z,1.30
2017-07-26T11:30:52.778Z,1.47
2017-07-26T11:33:21.706Z,1.20
2017-07-26T11:35:49.838Z,1.80
2017-07-26T11:38:18.732Z,3.03
2017-07-26T11:40:47.649Z,1.57
2017-07-26T11:43:15.776Z,1.30
2017-07-26T11:45:43.936Z,1.50
2017-07-26T11:48:12.079Z,1.97
2017-07-26T11:50:40.259Z,1.80
2017-07-26T11:53:08.377Z,2.97
2017-07-26T11:55:37.274Z,1.63
2017-07-26T11:58:05.428Z,1.83
2017-07-26T12:00:33.567Z,2.23
2017-07-26T12:03:01.730Z,2.50
2017-07-26T12:05:29.863Z,1.70
2017-07-26T12:07:58.222Z,4.53
2017-07-26T12:10:27.113Z,1.30
2017-07-26T12:12:56.017Z,4.90
2017-07-26T12:15:24.174Z,1.00
2017-07-26T12:17:53.084Z,1.53
2017-07-26T12:20:21.263Z,1.97
2017-07-26T12:22:49.407Z,1.03
2017-07-26T12:25:18.306Z,1.60
2017-07-26T12:27:46.483Z,1.67
2017-07-26T12:30:14.627Z,1.50
2017-07-26T12:32:42.803Z,1.37
2017-07-26T12:35:11.689Z,1.43
2017-07-26T12:37:40.575Z,1.20
2017-07-26T12:40:08.726Z,1.50
2017-07-26T12:42:36.865Z,1.87
2017-07-26T12:45:05.017Z,1.80
2017-07-26T12:47:33.148Z,1.60
2017-07-26T12:50:01.306Z,2.10
2017-07-26T12:52:29.439Z,1.60
2017-07-26T12:54:57.561Z,2.40
2017-07-26T12:57:25.718Z,2.73
2017-07-26T12:59:53.840Z,1.50
2017-07-26T13:02:21.989Z,1.63
2017-07-26T13:04:50.113Z,2.00
2017-07-26T13:07:18.241Z,2.40
2017-07-26T13:09:47.189Z,1.97
2017-07-26T13:12:15.318Z,1.60
2017-07-26T13:14:43.474Z,2.77
2017-07-26T13:17:12.365Z,2.07
2017-07-26T13:19:41.253Z,2.37
2017-07-26T13:22:10.176Z,3.10
2017-07-26T13:24:38.311Z,2.10
2017-07-26T13:27:07.246Z,2.47
2017-07-26T13:29:35.380Z,3.40
2017-07-26T13:32:03.545Z,2.80
2017-07-26T13:34:32.481Z,2.67
2017-07-26T13:37:00.655Z,2.87
2017-07-26T13:39:28.798Z,4.20
2017-07-26T13:41:56.935Z,2.87
2017-07-26T13:44:25.102Z,3.37
2017-07-26T13:46:53.221Z,4.10
2017-07-26T13:49:21.382Z,3.20
2017-07-26T13:51:49.511Z,3.77
2017-07-26T13:54:17.686Z,3.53
2017-07-26T13:56:45.819Z,2.90
2017-07-26T13:59:13.955Z,4.60
2017-07-26T14:01:42.873Z,2.90
2017-07-26T14:04:11.004Z,3.83
2017-07-26T14:06:39.936Z,3.37
2017-07-26T14:09:08.060Z,6.37
2017-07-26T14:11:36.228Z,4.30
2017-07-26T14:14:04.356Z,3.47
2017-07-26T14:16:32.486Z,3.43
2017-07-26T14:19:01.415Z,3.90
2017-07-26T14:21:29.537Z,3.30
2017-07-26T14:23:58.459Z,3.20
2017-07-26T14:26:26.904Z,5.03
2017-07-26T14:28:55.837Z,5.57
2017-07-26T14:31:23.967Z,5.57
2017-07-26T14:33:52.874Z,5.33
2017-07-26T14:36:21.037Z,5.37
2017-07-26T14:38:49.163Z,6.00
2017-07-26T14:41:17.325Z,6.10
2017-07-26T14:43:45.464Z,5.13
2017-07-26T14:46:13.576Z,6.90
2017-07-26T14:48:41.720Z,6.67
2017-07-26T14:51:09.846Z,7.87
2017-07-26T14:53:38.018Z,6.07
2017-07-26T14:56:06.172Z,7.97
2017-07-26T14:58:34.335Z,8.00
2017-07-26T15:01:02.466Z,6.60
2017-07-26T15:03:30.617Z,7.67
2017-07-26T15:05:59.519Z,7.00
2017-07-26T15:08:27.676Z,9.30
2017-07-26T15:10:56.829Z,8.17
2017-07-26T15:13:25.000Z,8.33
2017-07-26T15:15:53.126Z,8.40
2017-07-26T15:18:22.013Z,8.63
2017-07-26T15:20:50.930Z,6.87
2017-07-26T15:23:19.067Z,6.63
2017-07-26T15:25:47.217Z,10.03
2017-07-26T15:28:15.351Z,10.53
2017-07-26T15:30:43.520Z,5.40
2017-07-26T15:33:12.408Z,5.90
2017-07-26T15:35:40.584Z,5.97
2017-07-26T15:38:08.714Z,4.93
2017-07-26T15:40:37.616Z,6.07
2017-07-26T15:43:05.778Z,5.00
2017-07-26T15:45:34.674Z,9.80
2017-07-26T15:48:02.833Z,6.07
2017-07-26T15:50:31.726Z,4.53
2017-07-26T15:53:00.641Z,7.27
2017-07-26T15:55:28.778Z,8.23
2017-07-26T15:57:57.701Z,4.97
2017-07-26T16:00:25.937Z,6.90
2017-07-26T16:02:54.070Z,6.80
2017-07-26T16:05:22.229Z,5.90
2017-07-26T16:07:50.363Z,6.30
2017-07-26T16:10:18.525Z,6.93
2017-07-26T16:12:47.426Z,12.27
2017-07-26T16:15:16.323Z,5.27
2017-07-26T16:17:44.474Z,6.20
2017-07-26T16:20:13.374Z,4.87
2017-07-26T16:22:42.306Z,4.80
2017-07-26T16:25:10.434Z,6.50
2017-07-26T16:27:38.552Z,5.30
2017-07-26T16:30:06.709Z,6.10
2017-07-26T16:32:34.830Z,5.67
2017-07-26T16:35:03.114Z,4.80
2017-07-26T16:37:32.013Z,8.20
2017-07-26T16:40:00.910Z,7.77
2017-07-26T16:42:29.083Z,4.93
2017-07-26T16:44:57.201Z,5.53
2017-07-26T16:47:25.372Z,8.00
2017-07-26T16:49:53.510Z,6.73
2017-07-26T16:52:21.649Z,6.77
2017-07-26T16:54:50.579Z,7.70
2017-07-26T16:57:18.722Z,8.00
2017-07-26T16:59:47.649Z,7.00
2017-07-26T17:02:15.781Z,6.80
2017-07-26T17:04:44.672Z,6.70
2017-07-26T17:07:13.606Z,6.50
2017-07-26T17:09:41.743Z,6.10
2017-07-26T17:12:09.905Z,5.17
2017-07-26T17:14:38.804Z,7.93
2017-07-26T17:17:06.935Z,6.53
2017-07-26T17:19:35.115Z,8.07
2017-07-26T17:22:03.245Z,5.70
2017-07-26T17:24:31.397Z,9.07
2017-07-26T17:26:59.526Z,5.90
2017-07-26T17:29:27.697Z,7.43
2017-07-26T17:31:55.890Z,8.33
2017-07-26T17:34:24.834Z,10.53
2017-07-26T17:36:52.962Z,8.70
2017-07-26T17:39:21.098Z,7.20
2017-07-26T17:41:49.249Z,10.20
2017-07-26T17:44:17.387Z,9.23
2017-07-26T17:46:45.755Z,7.73
2017-07-26T17:49:13.873Z,8.10
2017-07-26T17:51:42.010Z,11.03
2017-07-26T17:54:10.194Z,8.07
2017-07-26T17:56:38.455Z,7.47
2017-07-26T17:59:06.679Z,8.07
2017-07-26T18:01:34.817Z,7.67
2017-07-26T18:04:03.218Z,11.03
2017-07-26T18:06:31.448Z,11.53
2017-07-26T18:08:59.690Z,8.70
2017-07-26T18:11:28.657Z,7.90
2017-07-26T18:13:56.804Z,6.70
2017-07-26T18:16:25.011Z,8.33
2017-07-26T18:18:53.367Z,7.10
2017-07-26T18:21:21.693Z,7.07
2017-07-26T18:23:49.906Z,11.17
2017-07-26T18:26:18.048Z,11.23
2017-07-26T18:28:46.241Z,13.03
2017-07-26T18:31:14.383Z,9.80
2017-07-26T18:33:42.739Z,5.83
2017-07-26T18:36:11.146Z,6.00
2017-07-26T18:38:39.803Z,7.73
2017-07-26T18:41:07.992Z,7.90
2017-07-26T18:43:36.175Z,6.60
2017-07-26T18:46:04.362Z,5.57
2017-07-26T18:48:32.539Z,5.27
2017-07-26T18:51:02.043Z,8.17
2017-07-26T18:53:34.007Z,5.90
2017-07-26T18:56:02.330Z,5.60
2017-07-26T18:58:31.320Z,6.27
2017-07-26T19:00:59.662Z,7.70
2017-07-26T19:03:28.178Z,6.90
2017-07-26T19:05:57.399Z,8.23
2017-07-26T19:08:25.959Z,6.90
2017-07-26T19:10:54.441Z,8.27
2017-07-26T19:13:23.534Z,7.53
2017-07-26T19:15:52.952Z,7.47
2017-07-26T19:18:22.325Z,7.53
2017-07-26T19:20:51.770Z,7.40
2017-07-26T19:23:22.052Z,6.63
2017-07-26T19:25:51.486Z,7.17
2017-07-26T19:28:20.446Z,6.20
2017-07-26T19:30:49.924Z,7.53
2017-07-26T19:33:18.726Z,4.80
2017-07-26T19:35:48.177Z,5.10
2017-07-26T19:38:27.609Z,5.13
2017-07-26T19:40:58.397Z,5.50
2017-07-26T19:43:27.892Z,6.07
2017-07-26T19:45:57.768Z,6.90
2017-07-26T19:48:27.090Z,9.37
2017-07-26T19:50:56.812Z,9.47
2017-07-26T19:53:26.683Z,5.70
2017-07-26T19:55:56.656Z,7.73
2017-07-26T19:58:26.034Z,7.30
2017-07-26T20:00:55.507Z,10.50
2017-07-26T20:03:25.928Z,6.27
2017-07-26T20:05:56.460Z,5.40
2017-07-26T20:08:25.876Z,5.40
2017-07-26T20:10:55.682Z,5.60
2017-07-26T20:13:34.542Z,7.77
2017-07-26T20:16:13.259Z,7.83
2017-07-26T20:18:43.337Z,7.50
2017-07-26T20:21:12.810Z,7.03
2017-07-26T20:23:41.021Z,4.50
2017-07-26T20:26:09.185Z,5.73
2017-07-26T20:28:37.331Z,7.10
2017-07-26T20:31:05.675Z,7.63
2017-07-26T20:33:34.570Z,5.50
2017-07-26T20:36:03.479Z,7.20
2017-07-26T20:38:31.648Z,5.50
2017-07-26T20:40:59.771Z,10.63
2017-07-26T20:43:27.935Z,7.10
2017-07-26T20:45:56.073Z,7.83
2017-07-26T20:48:24.258Z,7.03
2017-07-26T20:50:52.390Z,8.40
2017-07-26T20:53:21.291Z,8.50
2017-07-26T20:55:49.454Z,6.37
2017-07-26T20:58:18.355Z,7.00
2017-07-26T21:00:46.512Z,7.27
2017-07-26T21:03:15.404Z,9.20
2017-07-26T21:05:44.346Z,4.20
2017-07-26T21:08:12.489Z,5.23
2017-07-26T21:10:40.609Z,6.37
2017-07-26T21:13:08.756Z,6.53
2017-07-26T21:15:36.881Z,6.60
2017-07-26T21:18:05.802Z,4.60
2017-07-26T21:20:33.926Z,7.30
2017-07-26T21:23:02.865Z,5.33
2017-07-26T21:25:30.983Z,6.13
2017-07-26T21:27:59.113Z,12.13
2017-07-26T21:30:27.260Z,5.67
2017-07-26T21:32:55.444Z,5.77
2017-07-26T21:35:23.611Z,4.20
2017-07-26T21:37:51.746Z,4.63
2017-07-26T21:40:20.678Z,5.33
2017-07-26T21:42:48.801Z,4.00
2017-07-26T21:45:16.939Z,6.77
2017-07-26T21:47:45.090Z,6.33
2017-07-26T21:50:13.218Z,4.17
2017-07-26T21:52:42.157Z,5.10
2017-07-26T21:55:10.283Z,4.67
2017-07-26T21:57:39.215Z,5.63
2017-07-26T22:00:12.939Z,5.10
2017-07-26T22:02:41.149Z,4.57
2017-07-26T22:05:10.087Z,4.63
2017-07-26T22:07:38.264Z,5.27
2017-07-26T22:10:06.486Z,4.30
2017-07-26T22:12:35.443Z,5.13
2017-07-26T22:15:03.665Z,5.80
2017-07-26T22:17:31.837Z,7.43
2017-07-26T22:20:00.060Z,5.47
2017-07-26T22:22:28.259Z,7.13
2017-07-26T22:24:56.460Z,5.00
2017-07-26T22:27:24.633Z,4.63
2017-07-26T22:29:52.809Z,4.20
2017-07-26T22:32:21.007Z,5.07
2017-07-26T22:34:49.199Z,4.50
2017-07-26T22:37:17.759Z,5.37
2017-07-26T22:39:45.946Z,6.33
2017-07-26T22:42:14.186Z,4.30
2017-07-26T22:44:42.373Z,5.90
2017-07-26T22:47:10.567Z,5.07
2017-07-26T22:49:38.774Z,5.40
2017-07-26T22:52:07.716Z,4.80
2017-07-26T22:54:35.916Z,3.77
2017-07-26T22:57:04.080Z,5.53
2017-07-26T22:59:32.308Z,6.00
2017-07-26T23:02:00.471Z,5.30
2017-07-26T23:04:28.680Z,5.20
2017-07-26T23:06:56.868Z,12.47
2017-07-26T23:09:25.048Z,5.73
2017-07-26T23:11:53.310Z,5.90
2017-07-26T23:14:21.481Z,5.67
2017-07-26T23:16:49.715Z,5.03
2017-07-26T23:19:17.880Z,3.30
2017-07-26T23:21:46.111Z,4.60
2017-07-26T23:24:14.322Z,7.40
2017-07-26T23:26:42.495Z,5.40
2017-07-26T23:29:10.715Z,7.50
2017-07-26T23:31:38.903Z,7.10
2017-07-26T23:34:07.147Z,5.23
2017-07-26T23:36:35.338Z,7.77
2017-07-26T23:39:04.309Z,6.60
2017-07-26T23:41:32.534Z,4.20
2017-07-26T23:44:01.471Z,5.67
2017-07-26T23:46:29.668Z,7.10
2017-07-26T23:48:57.841Z,6.20
2017-07-26T23:51:26.070Z,7.60
2017-07-26T23:53:54.239Z,5.93
2017-07-26T23:56:22.483Z,7.73
2017-07-26T23:58:51.438Z,6.80
